Time;durP1;ratioP1;P1;durP2;ratioP2;P2;SDS_P1;SDS_P2;PMS_P1;PMS_P2;Temp;Humidity;BMP_temperature;BMP_pressure;BME280_temperature;BME280_humidity;BME280_pressure;Samples;Min_cycle;Max_cycle;Signal;HPM_P1;HPM_P2
2022/11/03 00:01:52;;;;;;;;;5.00;5.00;;;;;13.92;69.43;101129.13;4980077;28;45388;-71
2022/11/03 00:04:20;;;;;;;;;9.00;6.33;;;;;13.96;69.51;101124.28;4979943;28;46594;-73
2022/11/03 00:06:48;;;;;;;;;10.67;5.33;;;;;13.85;69.28;101124.56;4978631;28;45364;-73
2022/11/03 00:09:16;;;;;;;;;8.33;5.33;;;;;13.23;69.19;101012.41;4978736;28;45343;-74
2022/11/03 00:11:43;;;;;;;;;5.33;4.33;;;;;13.77;69.35;101128.00;4980447;28;45359;-75
2022/11/03 00:14:09;;;;;;;;;6.67;5.00;;;;;13.66;69.35;101094.38;4980333;28;45787;-73
2022/11/03 00:16:34;;;;;;;;;9.33;5.33;;;;;13.58;69.41;101075.59;4995201;28;45417;-72
2022/11/03 00:19:00;;;;;;;;;5.67;5.67;;;;;12.87;69.65;100955.50;4978594;28;45179;-72
2022/11/03 00:21:25;;;;;;;;;7.00;5.67;;;;;13.74;69.66;101093.56;4978723;28;45317;-72
2022/11/03 00:23:51;;;;;;;;;7.67;6.33;;;;;13.39;69.62;101060.56;4978121;28;46680;-71
2022/11/03 00:26:20;;;;;;;;;6.33;4.67;;;;;13.86;69.59;101111.03;4978376;28;45492;-71
2022/11/03 00:28:48;;;;;;;;;8.00;7.67;;;;;13.88;69.79;101121.59;4978405;28;45374;-72
2022/11/03 00:31:22;;;;;;;;;7.33;5.00;;;;;13.80;69.64;101092.09;4978314;28;45565;-72
2022/11/03 00:33:48;;;;;;;;;5.33;5.33;;;;;13.90;69.67;101106.22;4978241;28;46819;-72
2022/11/03 00:36:16;;;;;;;;;6.67;5.00;;;;;13.89;69.46;101099.19;4977942;28;45613;-73
2022/11/03 00:38:43;;;;;;;;;7.67;5.00;;;;;13.88;69.87;101086.84;4978142;28;45391;-70
2022/11/03 00:41:09;;;;;;;;;4.33;4.33;;;;;13.88;69.73;101102.88;4978858;28;45623;-73
2022/11/03 00:43:35;;;;;;;;;10.00;6.67;;;;;13.86;69.78;101092.34;4977870;28;45823;-71
2022/11/03 00:46:01;;;;;;;;;8.00;6.67;;;;;13.85;69.91;101087.16;4977777;28;45349;-71
2022/11/03 00:48:29;;;;;;;;;11.00;4.67;;;;;13.73;70.15;101072.34;4977921;28;45313;-71
2022/11/03 00:51:14;;;;;;;;;5.33;4.33;;;;;13.86;69.81;101084.31;4978293;28;45306;-72
2022/11/03 00:53:41;;;;;;;;;4.67;4.33;;;;;13.86;70.07;101075.47;4977831;28;45355;-72
2022/11/03 00:56:10;;;;;;;;;6.00;4.00;;;;;13.85;69.90;101081.81;4977850;28;45175;-73
2022/11/03 00:58:35;;;;;;;;;4.67;4.67;;;;;13.83;70.05;101063.25;4978249;28;45349;-73
2022/11/03 01:01:13;;;;;;;;;6.67;5.00;;;;;13.84;69.85;101072.13;4978967;28;45398;-72
2022/11/03 01:03:40;;;;;;;;;10.00;6.67;;;;;13.83;69.95;101055.25;4978726;28;46683;-72
2022/11/03 01:09:03;;;;;;;;;8.67;7.67;;;;;13.53;70.00;101002.25;4981270;28;45467;-72
2022/11/03 01:11:43;;;;;;;;;6.00;6.00;;;;;13.16;70.01;100925.88;4976384;28;45433;-70
2022/11/03 01:14:10;;;;;;;;;6.00;4.67;;;;;13.84;69.89;101046.22;4976575;28;45590;-71
2022/11/03 01:16:36;;;;;;;;;8.33;6.33;;;;;13.24;70.12;100938.47;4977350;28;45184;-70
2022/11/03 01:19:02;;;;;;;;;7.67;6.00;;;;;13.87;69.83;101034.38;4977750;28;45369;-71
2022/11/03 01:21:27;;;;;;;;;5.33;5.33;;;;;13.22;69.60;100924.47;4978027;28;45417;-72
2022/11/03 01:23:53;;;;;;;;;2.67;2.67;;;;;13.46;69.83;100963.81;4977490;28;45610;-73
2022/11/03 01:26:18;;;;;;;;;9.33;6.33;;;;;13.81;69.94;101002.91;4977339;28;45465;-71
2022/11/03 01:28:45;;;;;;;;;5.33;4.67;;;;;13.83;69.71;100998.28;4992505;28;45358;-71
2022/11/03 01:31:18;;;;;;;;;6.33;6.33;;;;;13.78;69.78;100981.88;4976381;28;45458;-73
2022/11/03 01:33:44;;;;;;;;;5.33;4.67;;;;;13.92;69.85;101005.34;4977250;28;45821;-73
2022/11/03 01:36:10;;;;;;;;;8.00;6.33;;;;;13.86;70.02;100997.97;4977700;28;45511;-71
2022/11/03 01:38:36;;;;;;;;;3.67;3.67;;;;;13.91;69.66;101006.34;4977922;28;45224;-72
2022/11/03 01:41:04;;;;;;;;;6.00;4.00;;;;;13.48;69.79;100909.25;4992778;28;45594;-72
2022/11/03 01:43:31;;;;;;;;;5.67;3.67;;;;;13.92;69.45;100984.78;4977198;28;46680;-72
2022/11/03 01:46:27;;;;;;;;;5.00;4.67;;;;;13.94;69.87;100979.28;4992498;28;45620;-73
2022/11/03 01:49:03;;;;;;;;;7.67;7.67;;;;;13.96;69.80;100974.59;4976538;28;45440;-71
2022/11/03 01:51:31;;;;;;;;;6.33;5.00;;;;;13.38;69.84;100881.81;4957954;28;45330;-71
2022/11/03 01:53:59;;;;;;;;;5.33;4.33;;;;;13.72;69.98;100942.44;4956299;28;48080;-72
2022/11/03 01:56:25;;;;;;;;;4.33;4.00;;;;;13.48;69.80;100892.38;4957871;28;45351;-71
2022/11/03 01:58:54;;;;;;;;;3.67;3.67;;;;;13.45;70.06;100890.88;4957857;28;45330;-71
2022/11/03 02:01:21;;;;;;;;;6.67;5.00;;;;;13.78;69.72;100926.59;4960767;28;45415;-72
2022/11/03 02:03:54;;;;;;;;;6.67;3.67;;;;;13.79;70.00;100930.94;4976789;28;45674;-72
2022/11/03 02:06:22;;;;;;;;;8.33;7.67;;;;;13.88;69.87;100942.50;4991912;28;45427;-72
2022/11/03 02:08:55;;;;;;;;;6.00;6.00;;;;;13.39;69.83;100862.13;4976684;28;45304;-72
2022/11/03 02:14:10;;;;;;;;;5.67;4.33;;;;;13.84;70.02;100931.31;4976823;28;45807;-73
2022/11/03 02:16:36;;;;;;;;;3.33;3.33;;;;;13.85;69.98;100932.97;4975372;28;45284;-75
2022/11/03 02:19:04;;;;;;;;;6.00;4.33;;;;;13.80;69.94;100910.38;4991631;28;45461;-70
2022/11/03 02:21:42;;;;;;;;;5.33;5.33;;;;;13.65;69.64;100878.94;4976940;28;45476;-71
2022/11/03 02:24:17;;;;;;;;;5.33;4.00;;;;;13.72;69.83;100883.66;4978068;28;46191;-72
2022/11/03 02:26:47;;;;;;;;;4.33;4.00;;;;;13.84;69.97;100898.41;4979828;28;45246;-72
2022/11/03 02:29:13;;;;;;;;;7.33;7.00;;;;;13.98;69.53;100914.63;4995983;28;45514;-70
2022/11/03 02:31:45;;;;;;;;;5.67;5.67;;;;;13.85;69.77;100895.56;4980368;28;45464;-70
2022/11/03 02:34:10;;;;;;;;;5.00;3.67;;;;;13.96;69.79;100897.09;4994860;28;47135;-70
2022/11/03 02:36:45;;;;;;;;;3.67;3.67;;;;;13.88;69.58;100878.38;4978409;28;50001;-75
2022/11/03 02:39:18;;;;;;;;;5.67;4.67;;;;;13.88;69.51;100873.03;4966312;28;45180;-70
2022/11/03 02:41:46;;;;;;;;;6.33;5.33;;;;;13.60;69.22;100819.81;4980268;28;45413;-70
2022/11/03 02:44:17;;;;;;;;;7.67;5.67;;;;;13.99;69.38;100873.53;4979540;28;45534;-71
2022/11/03 02:46:45;;;;;;;;;4.00;4.00;;;;;14.04;69.49;100885.59;4979645;28;45269;-71
2022/11/03 02:49:10;;;;;;;;;7.00;5.33;;;;;14.05;69.38;100880.09;4979601;28;45276;-71
2022/11/03 02:51:36;;;;;;;;;3.67;3.67;;;;;14.06;69.29;100871.06;4980263;28;45296;-71
2022/11/03 02:54:19;;;;;;;;;7.67;4.67;;;;;14.07;69.12;100875.41;4978469;28;47440;-70
2022/11/03 02:56:51;;;;;;;;;4.33;4.33;;;;;13.90;68.98;100825.59;4994925;28;45315;-70
2022/11/03 02:59:23;;;;;;;;;7.67;4.33;;;;;13.94;69.30;100834.94;4994819;28;45409;-69
2022/11/03 03:01:57;;;;;;;;;5.33;5.00;;;;;14.05;69.22;100853.34;4979684;28;45407;-72
2022/11/03 03:04:29;;;;;;;;;8.67;6.67;;;;;14.06;69.23;100848.84;4979240;28;47154;-71
2022/11/03 03:07:03;;;;;;;;;4.00;4.00;;;;;14.03;69.01;100827.78;4978098;28;45429;-70
2022/11/03 03:09:36;;;;;;;;;3.67;3.67;;;;;13.44;69.37;100725.47;4979260;28;45192;-73
2022/11/03 03:12:05;;;;;;;;;7.00;7.00;;;;;13.99;69.15;100805.88;4994477;28;45472;-69
2022/11/03 03:14:36;;;;;;;;;6.67;4.33;;;;;14.06;68.98;100800.72;4979379;28;46886;-72
2022/11/03 03:17:13;;;;;;;;;7.00;5.00;;;;;13.92;69.21;100786.16;4979017;28;45396;-69
2022/11/03 03:19:47;;;;;;;;;7.67;5.00;;;;;13.98;69.12;100796.19;4994348;28;45263;-71
2022/11/03 03:22:32;;;;;;;;;6.33;4.67;;;;;13.78;68.94;100755.56;4979312;28;45273;-70
2022/11/03 03:25:14;;;;;;;;;9.33;6.33;;;;;13.81;69.05;100770.44;4993394;28;48801;-70
2022/11/03 03:27:44;;;;;;;;;5.67;4.33;;;;;13.53;69.16;100698.59;4978957;28;45273;-72
2022/11/03 03:30:11;;;;;;;;;5.67;5.67;;;;;13.25;68.85;100665.16;4994023;28;45476;-69
2022/11/03 03:32:41;;;;;;;;;7.00;5.33;;;;;13.56;68.79;100708.09;4979184;28;45582;-72
2022/11/03 03:35:12;;;;;;;;;6.33;5.67;;;;;13.76;69.23;100738.88;4976960;28;45760;-71
2022/11/03 03:37:41;;;;;;;;;6.67;5.33;;;;;13.90;69.07;100753.41;4978977;28;45557;-72
2022/11/03 03:40:11;;;;;;;;;7.67;4.00;;;;;13.84;68.82;100727.38;4994591;28;45296;-71
2022/11/03 03:42:39;;;;;;;;;6.33;5.00;;;;;13.84;69.22;100722.84;4980080;28;45231;-72
2022/11/03 03:45:08;;;;;;;;;9.00;6.33;;;;;13.65;69.19;100712.47;4979540;28;45888;-72
2022/11/03 03:47:34;;;;;;;;;4.33;4.33;;;;;13.82;69.28;100737.38;4994370;28;46815;-72
2022/11/03 03:50:00;;;;;;;;;14.00;5.67;;;;;13.58;68.78;100696.25;4980048;28;45353;-74
2022/11/03 03:52:28;;;;;;;;;8.67;5.33;;;;;13.74;68.87;100713.31;4979800;28;45226;-73
2022/11/03 03:54:54;;;;;;;;;7.00;5.00;;;;;13.56;68.51;100670.72;4978648;28;45827;-71
2022/11/03 03:57:22;;;;;;;;;7.00;5.67;;;;;13.90;68.34;100734.72;4978364;28;45498;-71
2022/11/03 03:59:48;;;;;;;;;7.33;7.00;;;;;13.98;68.35;100753.41;4994006;28;45600;-70
2022/11/03 04:02:13;;;;;;;;;6.00;3.67;;;;;13.59;68.64;100692.56;4994277;28;45532;-72
2022/11/03 04:04:39;;;;;;;;;6.67;6.33;;;;;13.58;68.68;100701.59;4978370;28;45735;-73
2022/11/03 04:09:49;;;;;;;;;6.00;5.00;;;;;12.79;68.43;100547.22;4979133;28;45527;-72
2022/11/03 04:23:15;;;;;;;;;4.33;4.33;;;;;13.73;68.95;100706.31;4978728;28;45334;-72
2022/11/03 04:25:46;;;;;;;;;6.00;4.00;;;;;13.03;68.93;100590.00;4978074;28;45513;-71
2022/11/03 04:28:14;;;;;;;;;6.00;6.00;;;;;13.84;69.01;100720.19;4978208;28;45392;-70
2022/11/03 04:30:40;;;;;;;;;3.67;2.67;;;;;13.84;68.68;100693.47;4978041;28;45223;-75
2022/11/03 04:33:18;;;;;;;;;6.67;3.67;;;;;13.51;68.54;100632.97;4978194;28;45312;-72
2022/11/03 04:35:45;;;;;;;;;4.33;4.33;;;;;13.88;68.68;100685.94;4978022;28;45599;-71
2022/11/03 04:38:13;;;;;;;;;6.67;4.00;;;;;13.92;68.55;100687.28;4993132;28;45509;-72
2022/11/03 04:40:44;;;;;;;;;4.67;4.67;;;;;13.85;68.42;100662.22;4978019;28;45577;-73
2022/11/03 04:43:12;;;;;;;;;5.33;5.33;;;;;13.89;68.23;100666.22;4977671;28;45417;-71
2022/11/03 04:45:37;;;;;;;;;6.33;4.00;;;;;13.98;68.38;100675.91;4977829;28;45698;-71
2022/11/03 04:48:12;;;;;;;;;4.33;4.33;;;;;14.00;67.94;100673.91;4976811;28;45560;-71
2022/11/03 04:50:38;;;;;;;;;5.00;3.67;;;;;13.81;68.55;100640.31;4976560;28;45387;-69
2022/11/03 04:53:11;;;;;;;;;7.67;4.00;;;;;14.00;68.28;100673.91;4977984;28;45235;-73
2022/11/03 04:55:39;;;;;;;;;7.00;4.33;;;;;13.89;68.31;100645.69;4977834;28;46560;-70
2022/11/03 04:58:28;;;;;;;;;5.33;5.33;;;;;13.99;68.08;100657.03;4977777;28;45444;-71
2022/11/03 05:00:58;;;;;;;;;4.67;4.33;;;;;14.02;68.31;100665.75;4977711;28;45341;-70
2022/11/03 05:03:30;;;;;;;;;4.67;4.67;;;;;13.84;67.86;100623.16;4977861;28;45629;-71
2022/11/03 05:05:56;;;;;;;;;9.00;6.00;;;;;13.51;67.76;100564.38;4977146;28;45601;-70
2022/11/03 05:08:22;;;;;;;;;7.33;6.00;;;;;13.52;68.08;100550.03;4977227;28;45416;-71
2022/11/03 05:10:48;;;;;;;;;6.67;4.00;;;;;13.87;67.85;100612.13;4977879;28;45602;-71
2022/11/03 05:13:22;;;;;;;;;6.33;5.00;;;;;13.97;68.14;100621.59;4977874;28;45246;-72
2022/11/03 05:15:50;;;;;;;;;5.67;5.00;;;;;13.30;67.81;100502.63;4992084;28;48987;-71
2022/11/03 05:18:30;;;;;;;;;7.67;5.67;;;;;13.97;67.96;100610.09;4977419;28;45277;-72
2022/11/03 05:20:58;;;;;;;;;5.67;4.33;;;;;13.83;67.92;100594.75;4977389;28;45321;-73
2022/11/03 05:23:26;;;;;;;;;8.00;7.00;;;;;13.70;67.85;100577.38;4977852;28;45244;-73
2022/11/03 05:25:53;;;;;;;;;3.67;3.67;;;;;13.95;68.13;100606.75;4992113;28;48596;-72
2022/11/03 05:28:21;;;;;;;;;6.67;5.00;;;;;13.94;68.32;100597.91;4977257;28;45473;-73
2022/11/03 05:30:48;;;;;;;;;5.00;5.00;;;;;13.94;68.16;100575.69;4977408;28;45238;-73
2022/11/03 05:33:19;;;;;;;;;8.00;5.33;;;;;13.52;68.17;100512.63;4977925;28;45438;-70
2022/11/03 05:35:45;;;;;;;;;7.00;3.67;;;;;13.89;68.20;100570.84;4977319;28;47038;-70
2022/11/03 05:38:13;;;;;;;;;8.33;7.33;;;;;13.82;68.55;100561.84;4976873;28;45994;-74
2022/11/03 05:40:40;;;;;;;;;6.00;4.33;;;;;13.76;68.21;100553.66;4978047;28;45603;-71
2022/11/03 05:43:09;;;;;;;;;6.67;4.67;;;;;13.93;68.37;100577.53;4977931;28;45704;-71
2022/11/03 05:45:36;;;;;;;;;7.67;6.67;;;;;13.83;68.57;100535.97;4976777;28;46234;-71
2022/11/03 05:48:12;;;;;;;;;4.00;4.00;;;;;13.71;67.86;100506.09;4977163;28;45370;-70
2022/11/03 05:50:40;;;;;;;;;7.00;5.00;;;;;13.82;68.21;100520.94;4975667;28;45277;-71
2022/11/03 05:53:11;;;;;;;;;8.00;6.67;;;;;13.85;68.38;100529.44;4992410;28;45441;-74
2022/11/03 05:55:36;;;;;;;;;10.00;8.00;;;;;13.75;68.87;100503.91;4976981;28;45739;-70
2022/11/03 05:58:17;;;;;;;;;6.67;6.67;;;;;13.59;68.83;100478.88;4991878;28;45345;-70
2022/11/03 06:00:43;;;;;;;;;6.33;5.33;;;;;13.57;68.81;100486.22;4980642;28;45481;-72
2022/11/03 06:03:16;;;;;;;;;9.67;8.00;;;;;13.40;68.80;100455.22;4996486;28;45461;-72
2022/11/03 06:05:42;;;;;;;;;7.00;7.00;;;;;13.46;68.91;100470.59;4995098;28;47512;-70
2022/11/03 06:08:17;;;;;;;;;6.67;4.67;;;;;13.54;68.58;100478.56;4980108;28;45339;-72
2022/11/03 06:10:53;;;;;;;;;7.67;6.00;;;;;13.68;68.69;100504.59;4980671;28;45336;-71
2022/11/03 06:13:33;;;;;;;;;4.67;4.33;;;;;13.62;69.09;100481.25;4980755;28;45412;-71
2022/11/03 06:16:19;;;;;;;;;7.33;5.00;;;;;12.94;69.01;100382.84;4995288;28;47638;-72
2022/11/03 06:18:45;;;;;;;;;7.00;7.00;;;;;13.73;69.03;100504.06;4980430;28;45352;-71
2022/11/03 06:21:15;;;;;;;;;6.33;6.33;;;;;13.74;68.96;100502.25;4980671;28;45231;-70
2022/11/03 06:23:42;;;;;;;;;7.67;6.33;;;;;13.45;69.24;100455.56;4978744;28;45475;-73
2022/11/03 06:26:25;;;;;;;;;7.33;6.33;;;;;13.67;69.42;100476.22;4978270;28;47699;-71
2022/11/03 06:28:51;;;;;;;;;4.33;4.33;;;;;13.51;69.28;100449.53;4979687;28;45575;-72
2022/11/03 06:31:21;;;;;;;;;7.67;6.33;;;;;13.73;69.20;100484.53;4980171;28;45251;-72
2022/11/03 06:33:48;;;;;;;;;7.00;7.00;;;;;12.92;68.95;100335.97;4979872;28;45514;-73
2022/11/03 06:36:31;;;;;;;;;9.00;6.67;;;;;13.72;69.19;100461.50;4979823;28;45490;-72
2022/11/03 06:39:08;;;;;;;;;7.00;6.67;;;;;13.73;68.81;100469.34;4963101;28;45540;-74
2022/11/03 06:41:35;;;;;;;;;6.00;6.00;;;;;13.75;68.84;100461.16;4978262;28;46082;-72
2022/11/03 06:44:15;;;;;;;;;5.67;5.33;;;;;13.75;68.67;100439.78;4978343;28;45547;-71
2022/11/03 06:46:40;;;;;;;;;7.00;5.00;;;;;13.72;68.64;100435.63;4979884;28;45726;-70
2022/11/03 06:49:30;;;;;;;;;5.00;5.00;;;;;13.60;68.36;100416.44;4979499;28;45334;-72
2022/11/03 06:51:58;;;;;;;;;6.00;6.00;;;;;13.39;68.35;100368.09;4978319;28;45554;-72
2022/11/03 06:54:23;;;;;;;;;4.00;3.00;;;;;13.50;68.29;100399.78;4979787;28;45231;-72
2022/11/03 06:56:49;;;;;;;;;4.67;4.67;;;;;13.58;68.55;100407.78;4978290;28;45897;-69
2022/11/03 06:59:15;;;;;;;;;8.00;6.67;;;;;13.79;68.24;100444.59;4979506;28;45217;-72
2022/11/03 07:01:41;;;;;;;;;8.00;5.33;;;;;13.69;68.24;100428.78;4979676;28;45544;-71
2022/11/03 07:04:27;;;;;;;;;8.67;4.00;;;;;13.61;68.30;100379.88;4978362;28;45520;-71
2022/11/03 07:06:58;;;;;;;;;5.00;5.00;;;;;13.72;68.23;100378.69;4979928;28;45944;-72
2022/11/03 07:09:27;;;;;;;;;6.33;5.00;;;;;13.80;68.09;100400.84;4980620;28;45291;-71
2022/11/03 07:11:56;;;;;;;;;6.67;5.00;;;;;13.75;68.44;100387.19;4977465;28;45588;-71
2022/11/03 07:14:26;;;;;;;;;10.00;6.33;;;;;13.81;68.07;100405.19;4979475;28;45505;-72
2022/11/03 07:16:53;;;;;;;;;5.67;4.33;;;;;13.81;68.07;100397.16;4994412;28;48042;-73
2022/11/03 07:19:28;;;;;;;;;6.33;4.67;;;;;13.41;68.38;100326.03;4980475;28;45396;-72
2022/11/03 07:22:01;;;;;;;;;4.00;4.00;;;;;13.30;67.95;100307.72;4979934;28;45480;-72
2022/11/03 07:24:29;;;;;;;;;5.33;5.33;;;;;13.80;68.26;100383.97;4979837;28;45241;-73
2022/11/03 07:27:29;;;;;;;;;5.33;4.00;;;;;13.79;67.98;100371.63;4980321;28;45831;-73
2022/11/03 07:30:18;;;;;;;;;8.67;6.00;;;;;13.82;67.94;100385.50;4979766;28;45539;-72
2022/11/03 07:32:45;;;;;;;;;6.67;5.00;;;;;13.81;67.49;100370.44;4978107;28;45615;-72
2022/11/03 07:35:16;;;;;;;;;5.00;4.67;;;;;13.80;67.74;100357.25;4976054;28;45773;-73
2022/11/03 07:37:43;;;;;;;;;14.67;12.67;;;;;13.72;67.62;100349.28;4976545;28;45491;-73
2022/11/03 07:40:15;;;;;;;;;6.67;4.67;;;;;13.64;67.51;100326.97;4977511;28;45422;-72
2022/11/03 07:42:41;;;;;;;;;4.00;4.00;;;;;13.80;67.28;100347.41;4978232;28;45413;-72
2022/11/03 07:45:38;;;;;;;;;4.67;4.67;;;;;13.87;67.22;100344.88;4975902;28;45389;-75
2022/11/03 07:48:18;;;;;;;;;5.00;5.00;;;;;13.84;67.10;100353.25;4977567;28;46266;-72
2022/11/03 07:50:44;;;;;;;;;7.00;7.00;;;;;13.86;67.00;100335.22;4977173;28;45584;-73
2022/11/03 07:53:18;;;;;;;;;4.67;4.67;;;;;13.86;66.78;100322.69;4977166;28;45516;-71
2022/11/03 07:55:45;;;;;;;;;8.00;6.67;;;;;13.61;66.71;100289.88;4976497;28;45521;-72
2022/11/03 07:58:20;;;;;;;;;5.67;5.67;;;;;12.97;66.48;100185.03;4978206;28;46228;-72
2022/11/03 08:00:46;;;;;;;;;6.50;6.50;;;;;13.19;66.64;100209.31;4973473;28;45598;-73
2022/11/03 08:03:26;;;;;;;;;5.67;5.33;;;;;13.77;66.27;100298.84;4977588;28;45824;-70
2022/11/03 08:05:52;;;;;;;;;4.67;3.67;;;;;13.46;66.34;100243.59;4978047;28;45348;-73
2022/11/03 08:08:17;;;;;;;;;4.67;4.33;;;;;13.83;66.28;100306.16;4978289;28;45567;-74
2022/11/03 08:10:42;;;;;;;;;11.00;9.33;;;;;13.91;66.36;100322.16;4979941;28;45306;-72
2022/11/03 08:13:07;;;;;;;;;6.00;5.00;;;;;13.18;66.09;100192.47;4976878;28;45465;-72
2022/11/03 08:15:33;;;;;;;;;3.67;3.67;;;;;13.97;66.23;100305.41;4977886;28;45613;-71
2022/11/03 08:17:58;;;;;;;;;4.67;4.67;;;;;13.89;65.58;100278.75;4978710;28;45450;-71
2022/11/03 08:20:24;;;;;;;;;5.00;5.00;;;;;14.07;65.62;100311.38;4982128;28;45341;-71
2022/11/03 08:22:49;;;;;;;;;5.00;5.00;;;;;14.08;65.53;100280.13;4996442;28;45480;-74
2022/11/03 08:25:14;;;;;;;;;6.67;5.33;;;;;14.16;65.35;100288.06;4978667;28;45214;-73
2022/11/03 08:27:40;;;;;;;;;7.00;3.67;;;;;14.23;64.97;100276.50;4978708;28;46344;-71
2022/11/03 08:30:06;;;;;;;;;7.00;4.33;;;;;14.02;64.65;100240.75;4977082;28;45554;-71
2022/11/03 08:32:31;;;;;;;;;4.67;4.67;;;;;14.22;64.50;100269.50;4964561;28;45378;-71
2022/11/03 08:34:57;;;;;;;;;4.67;4.33;;;;;14.34;64.14;100293.94;4959067;28;45485;-74
2022/11/03 08:37:22;;;;;;;;;4.67;4.67;;;;;14.28;64.58;100275.94;4973673;28;47850;-72
2022/11/03 08:39:47;;;;;;;;;0.00;0.00;;;;;14.20;64.49;100263.47;4973109;28;46010;-74
2022/11/03 08:42:13;;;;;;;;;5.33;5.00;;;;;14.37;63.88;100280.22;4986757;28;49956;-72
2022/11/03 08:44:38;;;;;;;;;6.67;4.67;;;;;14.30;64.00;100261.38;4978644;28;45536;-72
2022/11/03 08:47:03;;;;;;;;;6.33;6.33;;;;;14.38;63.90;100267.66;4978915;28;56803;-81
2022/11/03 08:49:29;;;;;;;;;3.33;3.33;;;;;14.34;63.61;100237.78;4994641;28;46347;-73
2022/11/03 08:51:54;;;;;;;;;6.33;4.67;;;;;14.51;63.47;100250.03;4980518;28;45548;-74
2022/11/03 08:54:20;;;;;;;;;6.67;6.00;;;;;14.10;62.98;100171.16;4982209;28;45326;-72
2022/11/03 08:56:47;;;;;;;;;5.00;4.33;;;;;14.49;63.36;100221.81;4979325;28;45501;-71
2022/11/03 08:59:13;;;;;;;;;3.67;3.33;;;;;13.77;63.08;100074.41;4993278;28;45370;-72
2022/11/03 09:01:38;;;;;;;;;3.67;3.33;;;;;14.42;62.89;100178.06;4976974;28;45354;-70
2022/11/03 09:04:03;;;;;;;;;9.00;6.00;;;;;14.72;62.50;100211.88;4976538;28;45506;-70
2022/11/03 09:06:29;;;;;;;;;7.33;6.00;;;;;14.77;62.57;100228.19;4977576;28;46227;-73
2022/11/03 09:08:54;;;;;;;;;5.00;4.33;;;;;14.80;62.54;100201.06;4977073;28;45344;-69
2022/11/03 09:11:19;;;;;;;;;8.33;8.33;;;;;14.79;62.34;100199.41;4979057;28;45231;-73
2022/11/03 09:13:45;;;;;;;;;3.33;3.33;;;;;14.74;62.12;100174.22;4974395;28;49456;-72
2022/11/03 09:16:10;;;;;;;;;4.67;3.67;;;;;14.75;61.90;100191.94;4977430;28;45770;-72
2022/11/03 09:18:36;;;;;;;;;8.00;6.33;;;;;14.73;62.39;100189.44;4977491;28;45534;-70
2022/11/03 09:21:01;;;;;;;;;7.33;7.33;;;;;14.69;62.12;100161.41;4976705;28;45484;-71
2022/11/03 09:23:27;;;;;;;;;5.67;4.33;;;;;14.80;62.24;100179.66;4991599;28;45503;-71
2022/11/03 09:25:52;;;;;;;;;8.00;7.33;;;;;14.64;62.24;100141.56;4977590;28;46572;-71
2022/11/03 09:28:17;;;;;;;;;19.00;14.33;;;;;14.49;62.09;100096.09;4978420;28;45331;-72
2022/11/03 09:30:43;;;;;;;;;5.67;5.67;;;;;14.69;62.03;100118.59;4978564;28;45522;-75
2022/11/03 09:33:08;;;;;;;;;6.67;4.67;;;;;14.50;61.99;100077.19;4975731;28;45172;-74
2022/11/03 09:35:33;;;;;;;;;4.00;4.00;;;;;14.48;61.67;100075.72;4977084;28;55290;-73
2022/11/03 09:37:59;;;;;;;;;5.00;3.67;;;;;14.59;61.66;100093.97;4977636;28;45526;-73
2022/11/03 09:40:24;;;;;;;;;6.00;5.00;;;;;14.45;61.48;100076.09;4991359;28;45669;-74
2022/11/03 09:42:50;;;;;;;;;4.00;4.00;;;;;14.93;61.56;100152.25;4977468;28;45474;-74
2022/11/03 09:45:15;;;;;;;;;5.67;4.00;;;;;14.65;61.75;100095.91;4977668;28;45557;-73
2022/11/03 09:47:45;;;;;;;;;9.33;5.67;;;;;15.00;61.34;100146.97;4977355;28;45421;-77
2022/11/03 09:50:18;;;;;;;;;9.00;8.00;;;;;14.69;61.47;100070.44;4988500;28;45563;-72
2022/11/03 09:52:44;;;;;;;;;10.33;5.00;;;;;15.12;61.45;100137.44;4975106;28;45521;-78
2022/11/03 09:55:16;;;;;;;;;3.67;3.33;;;;;15.16;61.59;100119.97;4977151;28;45472;-73
2022/11/03 09:57:42;;;;;;;;;10.33;6.00;;;;;15.17;61.07;100105.56;4977718;28;45579;-75
2022/11/03 10:00:23;;;;;;;;;5.67;5.67;;;;;15.26;60.76;100112.50;4977003;28;45283;-73
2022/11/03 10:02:49;;;;;;;;;6.33;6.33;;;;;15.29;60.59;100112.09;4977883;28;45449;-71
2022/11/03 10:05:23;;;;;;;;;5.00;5.00;;;;;15.20;60.58;100099.84;4975763;28;45777;-71
2022/11/03 10:07:50;;;;;;;;;7.33;5.67;;;;;15.24;61.48;100082.41;4975090;28;45662;-75
2022/11/03 10:10:18;;;;;;;;;7.33;4.33;;;;;15.02;60.68;100032.53;4976736;28;45282;-73
2022/11/03 10:12:44;;;;;;;;;6.00;3.00;;;;;15.44;59.91;100086.09;4992371;28;45354;-72
2022/11/03 10:15:17;;;;;;;;;12.33;6.67;;;;;14.59;59.51;99947.66;4973159;28;45402;-77
2022/11/03 10:17:43;;;;;;;;;7.00;7.00;;;;;14.37;58.98;99905.81;4976747;28;45373;-74
2022/11/03 10:20:11;;;;;;;;;7.33;7.33;;;;;15.18;58.88;100034.94;4976326;28;46114;-77
2022/11/03 10:22:37;;;;;;;;;10.00;6.00;;;;;15.19;58.99;100034.75;4974893;28;45671;-79
2022/11/03 10:25:29;;;;;;;;;2.67;2.67;;;;;15.47;58.88;100068.81;4974694;28;46862;-76
2022/11/03 10:28:14;;;;;;;;;6.33;4.00;;;;;15.46;58.81;100057.28;4976842;28;45374;-73
2022/11/03 10:31:05;;;;;;;;;4.00;4.00;;;;;15.46;58.75;100065.31;4977048;28;45358;-77
2022/11/03 10:33:39;;;;;;;;;3.00;3.00;;;;;14.72;58.98;99925.56;4976691;28;45318;-75
2022/11/03 10:36:13;;;;;;;;;4.67;3.00;;;;;15.51;58.53;100054.84;4977138;28;45844;-75
2022/11/03 10:38:39;;;;;;;;;8.00;7.00;;;;;15.15;58.65;99974.56;4977255;28;45238;-75
2022/11/03 10:41:20;;;;;;;;;4.33;3.33;;;;;15.59;58.04;100042.34;4980389;28;45435;-76
2022/11/03 10:43:59;;;;;;;;;3.67;3.67;;;;;15.46;58.54;100019.75;4978553;28;45227;-75
2022/11/03 10:46:25;;;;;;;;;4.00;4.00;;;;;15.45;58.38;100002.03;4977209;28;48055;-75
2022/11/03 10:49:02;;;;;;;;;3.00;3.00;;;;;15.71;58.29;100047.00;4995664;28;46398;-76
2022/11/03 10:51:28;;;;;;;;;4.33;2.67;;;;;15.63;58.08;100011.47;4981373;28;45471;-75
2022/11/03 10:53:54;;;;;;;;;6.00;5.00;;;;;15.78;57.91;100034.47;4979532;28;45635;-76
2022/11/03 10:56:20;;;;;;;;;3.67;3.67;;;;;15.67;57.79;100010.91;4980047;28;46222;-74
2022/11/03 10:58:45;;;;;;;;;4.67;3.67;;;;;15.50;57.64;99972.81;4979663;28;49701;-74
2022/11/03 11:01:11;;;;;;;;;4.00;4.00;;;;;15.72;57.92;99994.22;4978925;28;45316;-76
2022/11/03 11:03:42;;;;;;;;;5.67;5.67;;;;;16.03;57.64;100026.81;4980374;28;45319;-75
2022/11/03 11:06:24;;;;;;;;;6.67;5.00;;;;;16.02;57.81;99998.34;4979918;28;46560;-76
2022/11/03 11:08:53;;;;;;;;;3.00;3.00;;;;;16.23;57.11;100000.13;4979559;28;45532;-74
2022/11/03 11:11:19;;;;;;;;;4.00;4.00;;;;;16.35;57.07;100029.84;4980230;28;45250;-77
2022/11/03 11:14:23;;;;;;;;;3.67;3.33;;;;;16.32;56.68;100009.63;4996340;28;45219;-76
2022/11/03 11:16:52;;;;;;;;;5.33;4.33;;;;;16.30;56.88;100008.19;4979284;28;48161;-75
2022/11/03 11:19:19;;;;;;;;;2.00;2.00;;;;;16.30;56.88;99998.28;4979768;28;45366;-73
2022/11/03 11:21:46;;;;;;;;;4.33;3.00;;;;;16.41;56.75;99999.53;4979297;28;46615;-75
2022/11/03 11:24:12;;;;;;;;;3.67;3.67;;;;;16.28;57.15;99978.03;4978631;28;45509;-76
2022/11/03 11:26:40;;;;;;;;;4.00;4.00;;;;;16.35;57.31;99990.44;4980033;28;46026;-75
2022/11/03 11:29:09;;;;;;;;;3.33;3.33;;;;;16.41;57.85;99991.50;4979288;28;45275;-75
2022/11/03 11:31:42;;;;;;;;;4.33;4.00;;;;;16.13;57.72;99957.56;4980138;28;45323;-75
2022/11/03 11:34:20;;;;;;;;;3.33;3.33;;;;;16.30;57.96;100000.97;4981172;28;45474;-76
2022/11/03 11:37:06;;;;;;;;;11.00;5.33;;;;;16.25;60.57;99992.69;4980690;28;46393;-73
2022/11/03 11:39:32;;;;;;;;;6.00;5.00;;;;;16.21;62.36;99993.25;4979791;28;45938;-76
2022/11/03 11:42:15;;;;;;;;;4.00;4.00;;;;;16.02;63.09;99971.53;4994871;28;45459;-76
2022/11/03 11:44:53;;;;;;;;;4.50;2.75;;;;;16.05;63.08;99987.22;4975082;28;45536;-76
2022/11/03 11:47:18;;;;;;;;;3.67;3.00;;;;;15.96;63.59;99977.66;4958729;28;47686;-74
2022/11/03 11:49:44;;;;;;;;;9.00;5.00;;;;;15.74;63.50;99936.72;4958575;28;45379;-77
2022/11/03 11:52:09;;;;;;;;;3.00;3.00;;;;;15.78;63.66;99939.81;4968335;28;45460;-76
2022/11/03 11:54:35;;;;;;;;;4.33;4.33;;;;;15.92;63.71;99954.97;4995189;28;45310;-77
2022/11/03 11:57:00;;;;;;;;;6.00;5.00;;;;;15.70;63.78;99923.91;4980250;28;46301;-77